Hestrud (Nord, France) - 208 m
Donnes mto: Actuelle lundi, 23/04/2018 11:35
Date Horaire Temp Out Temp. E. min Temp. E. max Temp. Sol 1 Hum Out Hum. Sol 1 Press Rain Wind Dir Dir Solar Ev.Tr. UV Hi Solar Rad Dew Point Windchill Wind (Gust)
23/04/2018 11:35 14,2 C 14,1 C 14,2 C 16,1 C 79 % 78 cb 1016,9 hPa 0,0 mm 12,9 km/h (3 Bft) O-SO 247 58 min 0,127 mm 2,1 UV-I 250 W/m 10,6 C 11,0 C 16,1 km/h (3 Bft)
23/04/2018 10:35 12,7 C 12,7 C 12,7 C 13,3 C 86 % 75 cb 1016,5 hPa 0,0 mm 0,0 km/h (0 Bft) O 270 57 min 0,127 mm 1,4 UV-I 250 W/m 10,4 C 12,7 C 6,4 km/h (2 Bft)
23/04/2018 09:35 11,4 C 11,3 C 11,4 C 12,2 C 91 % 74 cb 1015,9 hPa 0,0 mm 9,7 km/h (2 Bft) O-SO 247 20 min 0,051 mm 1,2 UV-I 239 W/m 10,0 C 9,3 C 12,9 km/h (3 Bft)
23/04/2018 08:35 10,7 C 10,6 C 10,7 C 11,1 C 91 % 72 cb 1015,3 hPa 0,0 mm 0,0 km/h (0 Bft) N 0 0 min 0,025 mm 0,5 UV-I 109 W/m 9,3 C 10,7 C 0,0 km/h (0 Bft)
23/04/2018 07:35 10,7 C 10,7 C 10,7 C 10,0 C 87 % 70 cb 1014,8 hPa 0,0 mm 8,0 km/h (2 Bft) O-SO 247 0 min 0,000 mm 0,0 UV-I 26 W/m 8,6 C 9,6 C 9,7 km/h (2 Bft)
23/04/2018 06:35 10,8 C 10,8 C 10,8 C 10,6 C 85 % 69 cb 1014,1 hPa 0,0 mm 0,0 km/h (0 Bft) N 0 0 min 0,025 mm 0,0 UV-I 0 W/m 8,4 C 10,8 C 0,0 km/h (0 Bft)
23/04/2018 05:35 11,2 C 11,2 C 11,2 C 10,6 C 81 % 67 cb 1014,0 hPa 0,0 mm 11,3 km/h (2 Bft) SO 225 0 min 0,025 mm 0,0 UV-I 0 W/m 8,1 C 8,2 C 19,3 km/h (3 Bft)
23/04/2018 04:35 11,8 C 11,8 C 11,8 C 11,1 C 71 % 65 cb 1013,8 hPa 0,0 mm 8,0 km/h (2 Bft) SO 225 0 min 0,025 mm 0,0 UV-I 0 W/m 6,7 C 10,7 C 14,5 km/h (3 Bft)
23/04/2018 03:35 13,1 C 13,1 C 13,1 C 12,2 C 77 % 65 cb 1013,6 hPa 0,0 mm 8,0 km/h (2 Bft) O-SO 247 0 min 0,025 mm 0,0 UV-I 0 W/m 9,2 C 12,1 C 12,9 km/h (3 Bft)
23/04/2018 02:35 14,2 C 14,2 C 14,2 C 13,3 C 81 % 64 cb 1013,0 hPa 0,0 mm 6,4 km/h (2 Bft) O-SO 247 0 min 0,025 mm 0,0 UV-I 0 W/m 11,0 C 14,2 C 11,3 km/h (2 Bft)
23/04/2018 01:35 14,8 C 14,8 C 14,8 C 13,9 C 76 % 63 cb 1012,7 hPa 0,0 mm 3,2 km/h (1 Bft) O-SO 247 0 min 0,025 mm 0,0 UV-I 0 W/m 10,6 C 14,8 C 4,8 km/h (1 Bft)
23/04/2018 00:35 15,2 C 15,2 C 15,2 C 13,9 C 77 % 60 cb 1012,2 hPa 0,0 mm 0,0 km/h (0 Bft) O-SO 247 0 min 0,025 mm 0,0 UV-I 0 W/m 11,2 C 15,2 C 3,2 km/h (1 Bft)
22/04/2018 23:35 16,4 C 16,4 C 16,4 C 15,0 C 77 % 59 cb 1012,6 hPa 0,0 mm 8,0 km/h (2 Bft) S-SO 202 0 min 0,025 mm 0,0 UV-I 0 W/m 12,4 C 15,6 C 9,7 km/h (2 Bft)
22/04/2018 22:35 17,2 C 17,2 C 17,2 C 16,1 C 73 % 58 cb 1012,2 hPa 0,0 mm 4,8 km/h (1 Bft) O-NO 292 0 min 0,025 mm 0,0 UV-I 0 W/m 12,3 C 17,2 C 11,3 km/h (2 Bft)
22/04/2018 21:35 16,8 C 16,8 C 16,8 C 14,4 C 77 % 54 cb 1010,7 hPa 0,0 mm 0,0 km/h (0 Bft) N 0 0 min 0,025 mm 0,0 UV-I 0 W/m 12,7 C 16,8 C 0,0 km/h (0 Bft)
22/04/2018 20:35 19,9 C 19,9 C 20,0 C 17,2 C 67 % 53 cb 1010,5 hPa 0,0 mm 0,0 km/h (0 Bft) N 0 0 min 0,102 mm 0,0 UV-I 7 W/m 13,6 C 19,9 C 0,0 km/h (0 Bft)
22/04/2018 19:35 22,8 C 22,8 C 22,9 C 20,0 C 56 % 52 cb 1010,3 hPa 0,0 mm 6,4 km/h (2 Bft) SO 225 34 min 0,254 mm 0,0 UV-I 53 W/m 13,6 C 22,8 C 9,7 km/h (2 Bft)
22/04/2018 18:35 23,9 C 23,9 C 24,0 C 21,7 C 48 % 50 cb 1010,2 hPa 0,0 mm 12,9 km/h (3 Bft) SO 225 60 min 0,305 mm 0,6 UV-I 258 W/m 12,2 C 22,3 C 20,9 km/h (4 Bft)
22/04/2018 17:35 23,7 C 23,7 C 23,7 C 21,7 C 55 % 46 cb 1010,2 hPa 0,0 mm 14,5 km/h (3 Bft) SO 225 58 min 0,406 mm 1,3 UV-I 155 W/m 14,1 C 21,8 C 24,1 km/h (4 Bft)
22/04/2018 16:35 24,6 C 24,6 C 24,6 C 22,8 C 51 % 42 cb 1010,2 hPa 0,0 mm 19,3 km/h (3 Bft) SO 225 60 min 0,483 mm 2,2 UV-I 573 W/m 13,8 C 22,2 C 29,0 km/h (5 Bft)
22/04/2018 15:35 24,4 C 24,3 C 24,4 C 23,3 C 53 % 37 cb 1010,6 hPa 0,0 mm 14,5 km/h (3 Bft) SO 225 60 min 0,432 mm 3,3 UV-I 652 W/m 14,2 C 22,7 C 20,9 km/h (4 Bft)
22/04/2018 14:35 24,1 C 24,1 C 24,2 C 23,3 C 62 % 32 cb 1010,7 hPa 0,0 mm 17,7 km/h (3 Bft) SO 225 60 min 0,483 mm 3,6 UV-I 656 W/m 16,4 C 21,8 C 22,5 km/h (4 Bft)
22/04/2018 13:35 24,8 C 24,8 C 24,8 C 24,4 C 54 % 30 cb 1010,7 hPa 0,0 mm 14,5 km/h (3 Bft) SO 225 60 min 0,457 mm 2,9 UV-I 406 W/m 14,8 C 23,1 C 20,9 km/h (4 Bft)
22/04/2018 12:35 24,1 C 24,1 C 24,1 C 23,9 C 63 % 29 cb 1011,1 hPa 0,0 mm 14,5 km/h (3 Bft) SO 225 35 min 0,305 mm 3,8 UV-I 700 W/m 16,6 C 22,3 C 20,9 km/h (4 Bft)
22/04/2018 12:00 22,6 C 22,5 C 22,6 C 22,2 C 67 % 28 cb 1011,1 hPa 0,0 mm 11,3 km/h (2 Bft) SE 135 0 min 0,305 mm 3,4 UV-I 645 W/m 16,2 C 21,2 C 17,7 km/h (3 Bft)
_ Min-Heure 07:52 07:52 07:55 07:35 16:15 12:00 17:45 - 20:02 - - - - - - 04:26 08:20 20:03
Minimum _ 10,4 C 10,4 C 10,4 C 10,0 C 46 % 28 cb 1010,1 hPa - 0,0 km/h (0 Bft) - - - - - - 6,6 C 6,7 C 0,0 km/h (0 Bft)
_ Max-Heure 13:59 16:26 13:59 12:42 08:26 11:22 11:18 12:00 15:12 - - 12:00 14:00 13:26 11:33 14:39 13:29 15:12
Maximum _ 25,0 C 25,0 C 25,0 C 24,4 C 91 % 78 cb 1017,1 hPa 0,0 mm 24,1 km/h
SO (4 Bft)
- - 1 min 0,483 mm 4,4 UV-I 853 W/m 16,9 C 24,6 C 38,6 km/h
SO (5 Bft)
Moyenne _ 17,7 C 17,7 C 17,7 C 16,8 C 71 % 54 cb 1012,4 hPa #0,0 mm 8,1 km/h (2 Bft) SO - #2:15 h #0,505 mm 1,2 UV-I 71 W/m 12,1 C 16,7 C 12,1 km/h (2 Bft)